createdAt,value
2019-03-26T00:00:40.973Z,97450.65
2019-03-26T00:03:13.762Z,97460.50
2019-03-26T00:05:46.609Z,97471.48
2019-03-26T00:08:19.262Z,97477.77
2019-03-26T00:10:51.893Z,97479.55
2019-03-26T00:13:24.572Z,97473.03
2019-03-26T00:15:58.297Z,97474.78
2019-03-26T00:18:30.978Z,97483.21
2019-03-26T00:21:03.768Z,97491.39
2019-03-26T00:23:36.516Z,97485.71
2019-03-26T00:26:09.110Z,97485.23
2019-03-26T00:28:41.726Z,97484.08
2019-03-26T00:31:14.332Z,97487.25
2019-03-26T00:33:46.991Z,97495.97
2019-03-26T00:36:19.736Z,97500.56
2019-03-26T00:38:52.273Z,97506.12
2019-03-26T00:41:24.851Z,97501.89
2019-03-26T00:43:57.365Z,97504.17
2019-03-26T00:46:29.903Z,97502.48
2019-03-26T00:49:02.425Z,97501.00
2019-03-26T00:51:34.941Z,97511.41
2019-03-26T00:54:07.543Z,97514.19
2019-03-26T00:56:40.133Z,97519.79
2019-03-26T00:59:12.705Z,97514.02
2019-03-26T01:01:45.324Z,97509.59
2019-03-26T01:04:17.944Z,97525.14
2019-03-26T01:06:50.549Z,97525.63
2019-03-26T01:09:23.900Z,97519.52
2019-03-26T01:11:56.437Z,97520.41
2019-03-26T01:14:29.058Z,97521.07
2019-03-26T01:17:01.579Z,97526.94
2019-03-26T01:19:34.177Z,97532.08
2019-03-26T01:22:07.776Z,97531.69
2019-03-26T01:24:40.570Z,97532.37
2019-03-26T01:27:13.155Z,97524.42
2019-03-26T01:29:45.682Z,97526.91
2019-03-26T01:32:18.195Z,97524.30
2019-03-26T01:34:50.705Z,97523.67
2019-03-26T01:37:23.224Z,97521.36
2019-03-26T01:39:55.733Z,97524.61
2019-03-26T01:42:28.325Z,97523.97
2019-03-26T01:45:00.828Z,97524.52
2019-03-26T01:47:33.366Z,97529.92
2019-03-26T01:50:06.785Z,97530.39
2019-03-26T01:52:39.310Z,97529.00
2019-03-26T01:55:12.290Z,97525.27
2019-03-26T01:57:45.172Z,97524.64
2019-03-26T02:00:17.981Z,97522.48
2019-03-26T02:02:51.025Z,97528.24
2019-03-26T02:05:23.555Z,97527.59
2019-03-26T02:07:56.083Z,97526.77
2019-03-26T02:10:28.601Z,97528.44
2019-03-26T02:13:01.127Z,97525.56
2019-03-26T02:15:34.835Z,97531.23
2019-03-26T02:18:08.789Z,97529.52
2019-03-26T02:20:41.384Z,97527.30
2019-03-26T02:23:14.575Z,97534.33
2019-03-26T02:25:47.101Z,97535.80
2019-03-26T02:28:19.711Z,97533.39
2019-03-26T02:30:52.297Z,97527.38
2019-03-26T02:33:24.901Z,97537.14
2019-03-26T02:35:57.425Z,97535.21
2019-03-26T02:38:30.137Z,97543.00
2019-03-26T02:41:02.658Z,97545.47
2019-03-26T02:43:35.166Z,97548.05
2019-03-26T02:46:07.846Z,97556.45
2019-03-26T02:48:40.696Z,97553.28
2019-03-26T02:51:13.206Z,97552.91
2019-03-26T02:53:45.738Z,97555.20
2019-03-26T02:56:18.252Z,97560.27
2019-03-26T02:58:50.777Z,97555.80
2019-03-26T03:01:23.307Z,97556.53
2019-03-26T03:03:55.837Z,97555.50
2019-03-26T03:06:28.366Z,97562.18
2019-03-26T03:09:00.902Z,97568.21
2019-03-26T03:11:33.803Z,97576.98
2019-03-26T03:14:06.479Z,97574.46
2019-03-26T03:16:39.002Z,97581.31
2019-03-26T03:19:15.865Z,97577.77
2019-03-26T03:21:46.888Z,97581.88
2019-03-26T03:24:19.402Z,97584.94
2019-03-26T03:26:52.001Z,97582.90
2019-03-26T03:29:24.532Z,97579.28
2019-03-26T03:31:57.048Z,97580.58
2019-03-26T03:34:29.968Z,97584.58
2019-03-26T03:37:02.532Z,97590.29
2019-03-26T03:39:35.045Z,97592.28
2019-03-26T03:42:08.773Z,97598.77
2019-03-26T03:44:41.537Z,97605.32
2019-03-26T03:47:16.188Z,97609.84
2019-03-26T03:49:49.446Z,97614.52
2019-03-26T03:52:23.738Z,97621.95
2019-03-26T03:54:56.564Z,97626.58
2019-03-26T03:57:32.665Z,97625.36
2019-03-26T04:00:06.924Z,97632.68
2019-03-26T04:02:39.432Z,97633.06
2019-03-26T04:05:12.198Z,97634.30
2019-03-26T04:07:44.713Z,97632.94
2019-03-26T04:10:17.215Z,97628.53
2019-03-26T04:12:49.721Z,97631.70
2019-03-26T04:15:22.218Z,97639.61
2019-03-26T04:17:54.762Z,97644.88
2019-03-26T04:20:27.575Z,97650.91
2019-03-26T04:23:00.294Z,97654.72
2019-03-26T04:25:33.121Z,97650.58
2019-03-26T04:28:05.790Z,97646.02
2019-03-26T04:30:38.705Z,97647.95
2019-03-26T04:33:12.445Z,97658.27
2019-03-26T04:35:44.960Z,97652.45
2019-03-26T04:38:17.543Z,97652.94
2019-03-26T04:40:50.283Z,97654.89
2019-03-26T04:43:22.844Z,97653.81
2019-03-26T04:45:55.488Z,97650.30
2019-03-26T04:48:28.323Z,97655.77
2019-03-26T04:51:00.826Z,97659.20
2019-03-26T04:53:34.329Z,97662.56
2019-03-26T04:56:07.020Z,97657.11
2019-03-26T04:58:39.722Z,97654.99
2019-03-26T05:01:12.729Z,97659.20
2019-03-26T05:03:45.600Z,97655.42
2019-03-26T05:06:18.251Z,97659.27
2019-03-26T05:08:50.797Z,97656.29
2019-03-26T05:11:23.343Z,97656.67
2019-03-26T05:13:55.860Z,97659.05
2019-03-26T05:16:28.464Z,97676.71
2019-03-26T05:19:00.980Z,97669.55
2019-03-26T05:21:33.653Z,97670.47
2019-03-26T05:24:06.618Z,97669.55
2019-03-26T05:26:39.240Z,97674.47
2019-03-26T05:29:12.102Z,97675.44
2019-03-26T05:31:44.926Z,97673.91
2019-03-26T05:34:17.686Z,97674.23
2019-03-26T05:36:51.702Z,97677.54
2019-03-26T05:39:24.495Z,97685.63
2019-03-26T05:41:56.993Z,97695.17
2019-03-26T05:44:29.511Z,97698.22
2019-03-26T05:47:02.095Z,97698.81
2019-03-26T05:49:34.615Z,97698.17
2019-03-26T05:52:07.113Z,97702.30
2019-03-26T05:54:39.647Z,97706.39
2019-03-26T05:57:12.317Z,97700.14
2019-03-26T05:59:44.901Z,97702.81
2019-03-26T06:02:18.114Z,97696.25
2019-03-26T06:04:50.983Z,97697.95
2019-03-26T06:07:23.563Z,97706.30
2019-03-26T06:09:57.110Z,97714.47
2019-03-26T06:12:30.583Z,97714.83
2019-03-26T06:15:11.884Z,97714.42
2019-03-26T06:17:42.048Z,97720.50
2019-03-26T06:20:14.735Z,97721.55
2019-03-26T06:22:47.254Z,97723.69
2019-03-26T06:25:19.847Z,97718.44
2019-03-26T06:27:52.355Z,97719.12
2019-03-26T06:30:24.865Z,97719.43
2019-03-26T06:32:57.405Z,97718.05
2019-03-26T06:35:29.873Z,97719.67
2019-03-26T06:38:02.360Z,97718.00
2019-03-26T06:40:35.607Z,97726.44
2019-03-26T06:43:08.102Z,97738.16
2019-03-26T06:45:40.866Z,97737.34
2019-03-26T06:48:13.457Z,97741.29
2019-03-26T06:50:47.280Z,97746.19
2019-03-26T06:53:19.771Z,97744.86
2019-03-26T06:55:52.287Z,97740.89
2019-03-26T06:58:24.867Z,97742.53
2019-03-26T07:00:57.465Z,97741.72
2019-03-26T07:03:30.052Z,97741.56
2019-03-26T07:06:02.632Z,97748.55
2019-03-26T07:08:35.118Z,97755.16
2019-03-26T07:11:07.707Z,97748.77
2019-03-26T07:13:40.221Z,97749.47
2019-03-26T07:16:12.816Z,97750.74
2019-03-26T07:18:45.374Z,97754.48
2019-03-26T07:21:17.880Z,97758.67
2019-03-26T07:23:50.449Z,97769.30
2019-03-26T07:26:23.138Z,97767.13
2019-03-26T07:28:56.884Z,97769.04
2019-03-26T07:31:29.644Z,97766.80
2019-03-26T07:34:02.154Z,97765.68
2019-03-26T07:36:34.747Z,97767.87
2019-03-26T07:39:09.300Z,97761.63
2019-03-26T07:41:41.875Z,97766.04
2019-03-26T07:44:14.411Z,97763.97
2019-03-26T07:46:46.986Z,97767.03
2019-03-26T07:49:19.527Z,97779.66
2019-03-26T07:51:52.283Z,97788.02
2019-03-26T07:54:24.878Z,97782.25
2019-03-26T07:56:58.451Z,97781.84
2019-03-26T07:59:30.948Z,97777.80
2019-03-26T08:02:03.489Z,97781.36
2019-03-26T08:04:38.614Z,97781.16
2019-03-26T08:07:11.343Z,97776.80
2019-03-26T08:09:43.860Z,97783.40
2019-03-26T08:12:16.435Z,97786.39
2019-03-26T08:14:49.036Z,97789.94
2019-03-26T08:17:21.814Z,97792.72
2019-03-26T08:19:54.572Z,97794.31
2019-03-26T08:22:27.078Z,97791.04
2019-03-26T08:24:59.650Z,97794.77
2019-03-26T08:27:32.150Z,97789.82
2019-03-26T08:30:05.674Z,97786.58
2019-03-26T08:32:38.267Z,97786.57
2019-03-26T08:35:11.047Z,97779.91
2019-03-26T08:37:43.563Z,97785.98
2019-03-26T08:40:16.408Z,97787.64
2019-03-26T08:42:49.057Z,97779.66
2019-03-26T08:45:21.899Z,97783.34
2019-03-26T08:47:54.418Z,97781.19
2019-03-26T08:50:26.917Z,97776.99
2019-03-26T08:52:59.438Z,97780.55
2019-03-26T08:55:31.943Z,97773.84
2019-03-26T08:58:04.557Z,97773.45
2019-03-26T09:00:37.385Z,97782.39
2019-03-26T09:03:10.675Z,97773.53
2019-03-26T09:05:43.254Z,97783.87
2019-03-26T09:08:25.184Z,97793.27
2019-03-26T09:10:52.067Z,97796.20
2019-03-26T09:13:24.480Z,97797.59
2019-03-26T09:15:56.976Z,97796.55
2019-03-26T09:18:29.624Z,97798.64
2019-03-26T09:21:02.207Z,97805.69
2019-03-26T09:23:34.703Z,97815.50
2019-03-26T09:26:07.299Z,97819.05
2019-03-26T09:28:39.802Z,97818.83
2019-03-26T09:31:12.304Z,97819.05
2019-03-26T09:33:44.913Z,97813.59
2019-03-26T09:36:17.477Z,97809.61
2019-03-26T09:38:50.267Z,97819.02
2019-03-26T09:41:22.761Z,97815.55
2019-03-26T09:43:55.257Z,97819.27
2019-03-26T09:46:27.814Z,97817.94
2019-03-26T09:49:00.394Z,97820.73
2019-03-26T09:51:32.900Z,97830.30
2019-03-26T09:54:05.480Z,97829.03
2019-03-26T09:56:37.985Z,97827.56
2019-03-26T09:59:10.559Z,97825.14
2019-03-26T10:01:43.070Z,97827.47
2019-03-26T10:04:15.554Z,97826.89
2019-03-26T10:06:48.068Z,97823.87
2019-03-26T10:09:20.557Z,97823.93
2019-03-26T10:11:53.123Z,97816.82
2019-03-26T10:14:25.628Z,97814.20
2019-03-26T10:16:58.101Z,97817.94
2019-03-26T10:19:30.887Z,97811.19
2019-03-26T10:22:03.537Z,97812.16
2019-03-26T10:24:36.116Z,97808.21
2019-03-26T10:27:10.201Z,97810.56
2019-03-26T10:29:42.700Z,97815.97
2019-03-26T10:32:15.351Z,97809.19
2019-03-26T10:34:47.867Z,97802.42
2019-03-26T10:37:20.519Z,97799.45
2019-03-26T10:39:53.027Z,97795.05
2019-03-26T10:42:25.658Z,97788.33
2019-03-26T10:44:58.229Z,97804.02
2019-03-26T10:47:30.706Z,97797.72
2019-03-26T10:50:03.199Z,97794.69
2019-03-26T10:52:35.948Z,97795.06
2019-03-26T10:55:08.671Z,97799.64
2019-03-26T10:57:41.153Z,97795.95
2019-03-26T11:00:14.167Z,97792.08
2019-03-26T11:02:46.815Z,97793.75
2019-03-26T11:05:19.561Z,97790.30
2019-03-26T11:07:52.117Z,97784.58
2019-03-26T11:10:24.686Z,97792.05
2019-03-26T11:12:57.327Z,97782.20
2019-03-26T11:15:29.894Z,97783.88
2019-03-26T11:18:02.382Z,97778.19
2019-03-26T11:20:35.145Z,97774.30
2019-03-26T11:23:08.040Z,97770.78
2019-03-26T11:25:40.607Z,97769.61
2019-03-26T11:28:13.418Z,97768.06
2019-03-26T11:30:45.917Z,97772.48
2019-03-26T11:33:18.405Z,97765.36
2019-03-26T11:35:50.971Z,97760.56
2019-03-26T11:38:23.525Z,97766.36
2019-03-26T11:40:56.021Z,97767.94
2019-03-26T11:43:28.514Z,97763.44
2019-03-26T11:46:01.088Z,97767.69
2019-03-26T11:48:33.590Z,97767.92
2019-03-26T11:51:06.228Z,97763.81
2019-03-26T11:53:38.729Z,97767.86
2019-03-26T11:56:11.291Z,97769.05
2019-03-26T11:58:43.780Z,97762.84
2019-03-26T12:01:16.367Z,97768.84
2019-03-26T12:03:48.854Z,97767.37
2019-03-26T12:06:21.433Z,97767.82
2019-03-26T12:08:54.054Z,97759.87
2019-03-26T12:11:26.556Z,97765.25
2019-03-26T12:13:59.046Z,97762.88
2019-03-26T12:16:31.522Z,97760.64
2019-03-26T12:19:04.015Z,97751.42
2019-03-26T12:21:36.507Z,97754.28
2019-03-26T12:24:09.057Z,97751.32
2019-03-26T12:26:41.643Z,97748.92
2019-03-26T12:29:14.633Z,97747.33
2019-03-26T12:31:47.145Z,97742.45
2019-03-26T12:34:19.619Z,97736.76
2019-03-26T12:36:52.191Z,97740.58
2019-03-26T12:39:25.656Z,97736.91
2019-03-26T12:41:58.232Z,97738.22
2019-03-26T12:44:30.726Z,97737.70
2019-03-26T12:47:03.219Z,97732.94
2019-03-26T12:49:36.682Z,97739.27
2019-03-26T12:52:10.495Z,97734.53
2019-03-26T12:54:43.057Z,97730.66
2019-03-26T12:57:15.551Z,97725.64
2019-03-26T12:59:48.142Z,97727.84
2019-03-26T13:02:20.631Z,97738.56
2019-03-26T13:04:53.150Z,97728.52
2019-03-26T13:07:25.710Z,97724.17
2019-03-26T13:09:58.280Z,97722.73
2019-03-26T13:12:30.780Z,97722.73
2019-03-26T13:15:03.296Z,97718.09
2019-03-26T13:17:36.831Z,97721.93
2019-03-26T13:20:10.231Z,97709.38
2019-03-26T13:22:42.794Z,97715.05
2019-03-26T13:25:15.363Z,97717.53
2019-03-26T13:27:47.841Z,97713.28
2019-03-26T13:30:21.770Z,97712.64
2019-03-26T13:32:54.263Z,97712.49
2019-03-26T13:35:26.752Z,97706.05
2019-03-26T13:37:59.478Z,97694.96
2019-03-26T13:40:31.970Z,97698.45
2019-03-26T13:43:04.459Z,97694.83
2019-03-26T13:45:37.026Z,97692.09
2019-03-26T13:48:10.532Z,97688.79
2019-03-26T13:50:43.163Z,97693.00
2019-03-26T13:53:15.728Z,97680.62
2019-03-26T13:55:48.565Z,97684.52
2019-03-26T13:58:21.122Z,97680.78
2019-03-26T14:00:53.714Z,97685.27
2019-03-26T14:03:26.207Z,97695.91
2019-03-26T14:05:58.708Z,97694.47
2019-03-26T14:08:31.805Z,97697.53
2019-03-26T14:11:04.795Z,97694.19
2019-03-26T14:13:37.280Z,97682.80
2019-03-26T14:16:10.469Z,97690.97
2019-03-26T14:18:42.953Z,97683.48
2019-03-26T14:21:15.468Z,97677.95
2019-03-26T14:23:48.049Z,97677.37
2019-03-26T14:26:20.562Z,97669.41
2019-03-26T14:28:53.618Z,97671.50
2019-03-26T14:31:26.111Z,97674.42
2019-03-26T14:33:58.590Z,97666.30
2019-03-26T14:36:31.253Z,97674.80
2019-03-26T14:39:04.754Z,97675.48
2019-03-26T14:41:38.214Z,97685.88
2019-03-26T14:44:11.841Z,97679.70
2019-03-26T14:46:44.363Z,97691.18
2019-03-26T14:49:16.850Z,97686.05
2019-03-26T14:51:49.339Z,97693.50
2019-03-26T14:54:21.924Z,97690.97
2019-03-26T14:56:54.415Z,97694.64
2019-03-26T14:59:26.899Z,97697.24
2019-03-26T15:01:59.468Z,97699.89
2019-03-26T15:04:32.023Z,97700.48
2019-03-26T15:07:04.602Z,97694.78
2019-03-26T15:09:37.079Z,97695.73
2019-03-26T15:12:10.326Z,97697.69
2019-03-26T15:14:43.065Z,97692.80
2019-03-26T15:17:15.578Z,97696.35
2019-03-26T15:19:48.130Z,97693.03
2019-03-26T15:22:20.863Z,97686.15
2019-03-26T15:24:53.351Z,97697.23
2019-03-26T15:27:25.854Z,97695.19
2019-03-26T15:29:58.348Z,97686.83
2019-03-26T15:32:31.107Z,97691.87
2019-03-26T15:35:03.748Z,97694.02
2019-03-26T15:37:36.256Z,97689.73
2019-03-26T15:40:09.479Z,97693.05
2019-03-26T15:42:42.244Z,97686.14
2019-03-26T15:45:15.073Z,97693.05
2019-03-26T15:47:47.574Z,97692.69
2019-03-26T15:50:58.051Z,97696.63
2019-03-26T15:53:30.559Z,97691.02
2019-03-26T15:56:03.119Z,97704.00
2019-03-26T15:58:35.859Z,97706.84
2019-03-26T16:01:08.512Z,97702.69
2019-03-26T16:03:41.086Z,97704.11
2019-03-26T16:06:13.830Z,97699.34
2019-03-26T16:08:47.386Z,97711.34
2019-03-26T16:11:19.882Z,97710.48
2019-03-26T16:13:52.386Z,97717.60
2019-03-26T16:16:24.863Z,97719.11
2019-03-26T16:18:57.372Z,97717.05
2019-03-26T16:21:29.982Z,97717.94
2019-03-26T16:24:02.532Z,97722.05
2019-03-26T16:26:35.022Z,97719.83
2019-03-26T16:29:07.829Z,97722.61
2019-03-26T16:31:40.319Z,97717.95
2019-03-26T16:34:12.826Z,97724.70
2019-03-26T16:36:58.473Z,97735.33
2019-03-26T16:39:19.841Z,97735.09
2019-03-26T16:41:52.408Z,97733.44
2019-03-26T16:44:25.160Z,97738.78
2019-03-26T16:46:57.669Z,97741.50
2019-03-26T16:49:30.240Z,97743.38
2019-03-26T16:52:02.742Z,97741.41
2019-03-26T16:54:35.252Z,97744.67
2019-03-26T16:57:07.751Z,97743.16
2019-03-26T16:59:40.306Z,97750.34
2019-03-26T17:02:12.827Z,97749.73
2019-03-26T17:04:47.011Z,97753.98
2019-03-26T17:07:19.687Z,97747.83
2019-03-26T17:09:52.620Z,97753.32
2019-03-26T17:12:25.703Z,97750.30
2019-03-26T17:14:58.375Z,97751.33
2019-03-26T17:17:30.868Z,97749.44
2019-03-26T17:20:03.526Z,97751.09
2019-03-26T17:22:36.177Z,97748.08
2019-03-26T17:25:09.389Z,97750.44
2019-03-26T17:27:41.908Z,97754.56
2019-03-26T17:30:14.839Z,97748.54
2019-03-26T17:32:47.675Z,97756.58
2019-03-26T17:35:20.364Z,97760.26
2019-03-26T17:37:59.615Z,97762.18
2019-03-26T17:40:27.202Z,97763.77
2019-03-26T17:43:00.869Z,97767.63
2019-03-26T17:45:33.413Z,97765.78
2019-03-26T17:48:06.325Z,97769.50
2019-03-26T17:50:38.828Z,97765.31
2019-03-26T17:53:11.323Z,97762.50
2019-03-26T17:55:44.579Z,97763.02
2019-03-26T17:58:17.083Z,97757.16
2019-03-26T18:00:50.028Z,97767.24
2019-03-26T18:03:26.667Z,97762.39
2019-03-26T18:05:56.727Z,97771.84
2019-03-26T18:08:29.219Z,97778.64
2019-03-26T18:11:02.048Z,97774.77
2019-03-26T18:13:35.038Z,97778.59
2019-03-26T18:16:07.726Z,97780.32
2019-03-26T18:18:40.527Z,97778.69
2019-03-26T18:21:13.012Z,97779.02
2019-03-26T18:23:45.511Z,97787.12
2019-03-26T18:26:18.415Z,97793.90
2019-03-26T18:28:50.898Z,97799.08
2019-03-26T18:31:24.014Z,97798.93
2019-03-26T18:33:56.657Z,97798.56
2019-03-26T18:36:29.235Z,97804.81
2019-03-26T18:39:02.701Z,97802.72
2019-03-26T18:41:36.572Z,97809.80
2019-03-26T18:44:09.300Z,97805.98
2019-03-26T18:46:42.446Z,97808.17
2019-03-26T18:49:15.198Z,97798.66
2019-03-26T18:51:47.861Z,97811.61
2019-03-26T18:54:20.360Z,97807.05
2019-03-26T18:56:52.995Z,97809.10
2019-03-26T18:59:25.509Z,97804.07
2019-03-26T19:01:58.000Z,97813.17
2019-03-26T19:04:30.652Z,97811.48
2019-03-26T19:07:03.149Z,97809.84
2019-03-26T19:09:35.778Z,97802.34
2019-03-26T19:12:08.361Z,97805.55
2019-03-26T19:14:42.302Z,97800.23
2019-03-26T19:17:14.969Z,97808.30
2019-03-26T19:19:47.960Z,97806.59
2019-03-26T19:22:20.519Z,97816.01
2019-03-26T19:24:53.160Z,97809.93
2019-03-26T19:27:25.811Z,97807.52
2019-03-26T19:29:58.609Z,97815.89
2019-03-26T19:32:31.304Z,97808.58
2019-03-26T19:35:04.046Z,97813.17
2019-03-26T19:37:36.791Z,97816.13
2019-03-26T19:40:11.065Z,97816.27
2019-03-26T19:42:43.762Z,97817.88
2019-03-26T19:45:16.523Z,97819.74
2019-03-26T19:47:50.210Z,97820.52
2019-03-26T19:50:23.042Z,97819.73
2019-03-26T19:52:55.539Z,97808.10
2019-03-26T19:55:28.172Z,97822.50
2019-03-26T19:58:01.073Z,97819.30
2019-03-26T20:00:33.760Z,97817.41
2019-03-26T20:03:06.505Z,97823.34
2019-03-26T20:05:39.081Z,97823.43
2019-03-26T20:08:11.915Z,97823.99
2019-03-26T20:10:45.161Z,97813.01
2019-03-26T20:13:24.442Z,97817.02
2019-03-26T20:15:52.129Z,97822.19
2019-03-26T20:18:24.725Z,97825.27
2019-03-26T20:20:57.319Z,97821.45
2019-03-26T20:23:29.898Z,97809.83
2019-03-26T20:26:02.336Z,97820.05
2019-03-26T20:28:34.970Z,97824.92
2019-03-26T20:31:07.560Z,97821.94
2019-03-26T20:33:42.390Z,97825.61
2019-03-26T20:36:14.295Z,97829.95
2019-03-26T20:38:46.804Z,97829.59
2019-03-26T20:41:19.286Z,97838.78
2019-03-26T20:43:51.794Z,97840.97
2019-03-26T20:46:24.292Z,97839.28
2019-03-26T20:48:56.814Z,97836.30
2019-03-26T20:51:29.318Z,97835.86
2019-03-26T20:54:01.906Z,97833.34
2019-03-26T20:56:34.674Z,97839.03
2019-03-26T20:59:07.311Z,97843.61
2019-03-26T21:01:39.902Z,97843.42
2019-03-26T21:04:12.393Z,97836.61
2019-03-26T21:06:45.199Z,97834.92
2019-03-26T21:09:18.686Z,97836.67
2019-03-26T21:11:51.476Z,97830.77
2019-03-26T21:14:23.989Z,97835.89
2019-03-26T21:16:56.484Z,97836.92
2019-03-26T21:19:29.301Z,97842.70
2019-03-26T21:22:01.889Z,97840.34
2019-03-26T21:24:34.480Z,97846.62
2019-03-26T21:27:07.120Z,97845.14
2019-03-26T21:29:39.642Z,97845.55
2019-03-26T21:32:12.254Z,97842.29
2019-03-26T21:34:44.827Z,97845.65
2019-03-26T21:37:17.357Z,97849.53
2019-03-26T21:39:49.881Z,97852.75
2019-03-26T21:42:22.691Z,97861.14
2019-03-26T21:44:55.295Z,97858.27
2019-03-26T21:47:27.821Z,97860.34
2019-03-26T21:50:00.359Z,97860.75
2019-03-26T21:52:32.984Z,97864.54
2019-03-26T21:55:06.204Z,97876.13
2019-03-26T21:57:38.787Z,97870.79
2019-03-26T22:00:11.991Z,97874.82
2019-03-26T22:02:44.526Z,97880.66
2019-03-26T22:05:17.521Z,97879.86
2019-03-26T22:07:50.122Z,97886.05
2019-03-26T22:10:22.729Z,97878.83
2019-03-26T22:12:56.602Z,97875.75
2019-03-26T22:15:29.102Z,97871.73
2019-03-26T22:18:01.717Z,97873.16
2019-03-26T22:20:34.215Z,97864.62
2019-03-26T22:23:06.910Z,97865.06
2019-03-26T22:25:39.491Z,97866.85
2019-03-26T22:28:12.001Z,97860.47
2019-03-26T22:30:45.586Z,97864.22
2019-03-26T22:33:18.097Z,97866.73
2019-03-26T22:35:50.684Z,97862.96
2019-03-26T22:38:23.481Z,97861.22
2019-03-26T22:40:56.057Z,97864.89
2019-03-26T22:43:28.573Z,97862.96
2019-03-26T22:46:01.237Z,97862.81
2019-03-26T22:48:33.736Z,97866.70
2019-03-26T22:51:06.443Z,97860.39
2019-03-26T22:53:39.335Z,97862.41
2019-03-26T22:56:11.829Z,97856.03
2019-03-26T22:58:44.693Z,97858.73
2019-03-26T23:01:17.402Z,97859.11
2019-03-26T23:03:51.578Z,97867.92
2019-03-26T23:06:24.324Z,97863.33
2019-03-26T23:08:56.935Z,97867.15
2019-03-26T23:11:29.439Z,97870.77
2019-03-26T23:14:01.936Z,97872.56
2019-03-26T23:16:34.541Z,97869.39
2019-03-26T23:19:07.250Z,97868.80
2019-03-26T23:21:39.870Z,97868.31
2019-03-26T23:24:12.392Z,97863.98
2019-03-26T23:26:45.211Z,97872.72
2019-03-26T23:29:17.714Z,97868.89
2019-03-26T23:31:50.291Z,97867.90
2019-03-26T23:34:22.806Z,97868.41
2019-03-26T23:36:55.302Z,97870.70
2019-03-26T23:39:27.812Z,97872.27
2019-03-26T23:42:00.340Z,97874.66
2019-03-26T23:44:32.913Z,97880.08
2019-03-26T23:47:05.653Z,97881.63
2019-03-26T23:49:38.170Z,97876.23
2019-03-26T23:52:10.667Z,97880.02
2019-03-26T23:54:43.276Z,97880.90
2019-03-26T23:57:15.764Z,97879.46
2019-03-26T23:59:48.313Z,97878.88
